Aeroporto :
LOGIN :

Iscrizione | Disclaimer

   EN    FR    IT 

 










Sommario :    VFR   VFR Marginale   IFR   IFR Intensivo   IFR Molto Intensivo
Visibilità : 
Base nubi : 
>= 8 km
>= 3000ft
5 / 8 km
1000 / 3000 ft
1500m / 5 km
500 / 1000 ft
800 / 1500m
200 / 500 ft
< 800m
< 200 ft
Simboli :   Temporali  Nebbia  Neve Forte  Precipitazioni Forti  Vento > 20 kt
SIGMETs :   Varie  Temporali  Ghiacco  Turbolenza  Onda orograficha  Ceneri Vulcaniche






- Altitudine del aeroporto : 1115 ft
- Codice IATA : GRZ


LOWG - Graz

ULTIMO METAR :
  • 201350Z VRB02KT 6000 RA OVC014 08/08 Q1012 TEMPO 4000 -RA SCT009 BKN015

METARs OBSOLETI :
  • 201320Z 31002KT 6000 -RA OVC014 08/07 Q1012 TEMPO 4000 RA BKN009
  • 201250Z VRB02KT 5000 RA BR OVC012 08/07 Q1012 TEMPO 4000 -RA BKN009
  • 201220Z 33003KT 5000 -RA BR OVC012 08/07 Q1012 TEMPO 4000 RA BKN009
  • 201150Z 32003KT 280V340 5000 -RA BR OVC013 08/07 Q1013 TEMPO 4000 RA BKN009
  • 201120Z 31003KT 5000 RA BR OVC013 08/07 Q1013 TEMPO 4000 -RA BKN009

TAF TAF LOWG
Valido dal 20 a 12 ore il 21 a 12 ore UTC


201115Z 2012/2112 09006KT 6000 -RA BKN016 TX10/2112Z TN06/2103Z
TEMPO 2012/2021 05012KT 2500 RA BR BKN009
TEMPO 2021/2107 0300 RA BCFG BKN003
BECMG 2108/2110 15005KT 9999 NSW SCT012 BKN250



MetMap, La meteo Aeronautica in un colpo d'occhio ! - Copyright ORBIFLY Dicembre 2007 - Disclaimer

ORBIFLY MET'MAP TEAM :

Programmazione e sviluppo : Alexandra Zaïnal
Concezione e sviluppo : Baudouin d'Aumeries
Co-Programmazione e sviluppo : Marc-Olivier Méhu
Supporto tecnico e logistico : Manuel Goepfert
Aiuto per la traduzione : Arnaldo La Scala

Contatto : metmap@orbifly.com




FONTI E CREDITI :

   NOAA